メインページ
METAR-TAF:

METAR-TAF

空港 :

Tabas, イラン

緯度: 33-36N, 経度: 056-55E, 海抜: 710m

現時点の気象観測

当レポートは6時間24分前の12:00(UTC)に作成
西/北西の風 4kt
気温 17°C
湿度 25%
気圧 1023 hPa

METAR: OIMT 171200Z AUTO 29004KT //// // ////// 17/M03 Q1023

時間: 21:54 (18:24 UTC)


TAF: 見つかりません

4,000以上の空港の気象観測と天気予報(METAR報とTAF報)

利用可能な観測所は地図上に黄色い丸と赤い丸で示す。

丸の上にカーソルを重ねると観測所名を参照できる。

次にクリックすると気象観測と天気予報を参照できる。

マップの切り替え:黒色「×」印の緑ボタンをクリックして拡大、「-」印の緑ボタンをクリックして縮小、緑色の三角印をクリックして隣りの地図に切り替え


METAR-TAF: